sensor_id;sensor_type;location;lat;lon;timestamp;pressure;altitude;pressure_sealevel;temperature;humidity
79129;BME280;68529;43.286;23.360;2023-07-29T00:01:13;98939.22;;;20.92;53.41
79129;BME280;68529;43.286;23.360;2023-07-29T00:03:38;98936.41;;;20.94;53.52
79129;BME280;68529;43.286;23.360;2023-07-29T00:06:04;98939.72;;;20.86;53.56
79129;BME280;68529;43.286;23.360;2023-07-29T00:08:29;98931.00;;;20.84;53.60
79129;BME280;68529;43.286;23.360;2023-07-29T00:10:54;98938.84;;;20.86;53.83
79129;BME280;68529;43.286;23.360;2023-07-29T00:13:20;98933.44;;;20.76;53.67
79129;BME280;68529;43.286;23.360;2023-07-29T00:15:45;98941.53;;;20.75;54.25
79129;BME280;68529;43.286;23.360;2023-07-29T00:18:11;98946.88;;;20.75;53.94
79129;BME280;68529;43.286;23.360;2023-07-29T00:20:36;98947.75;;;20.75;53.93
79129;BME280;68529;43.286;23.360;2023-07-29T00:23:01;98949.69;;;20.73;54.45
79129;BME280;68529;43.286;23.360;2023-07-29T00:25:27;98947.75;;;20.75;54.07
79129;BME280;68529;43.286;23.360;2023-07-29T00:27:55;98948.97;;;20.71;54.21
79129;BME280;68529;43.286;23.360;2023-07-29T00:30:21;98951.03;;;20.68;54.44
79129;BME280;68529;43.286;23.360;2023-07-29T00:32:46;98950.19;;;20.67;54.49
79129;BME280;68529;43.286;23.360;2023-07-29T00:35:12;98942.19;;;20.56;54.80
79129;BME280;68529;43.286;23.360;2023-07-29T00:37:37;98946.28;;;20.49;54.91
79129;BME280;68529;43.286;23.360;2023-07-29T00:40:08;98939.53;;;20.45;55.21
79129;BME280;68529;43.286;23.360;2023-07-29T00:42:34;98947.53;;;20.45;55.10
79129;BME280;68529;43.286;23.360;2023-07-29T00:45:00;98944.97;;;20.44;54.88
79129;BME280;68529;43.286;23.360;2023-07-29T00:47:25;98950.44;;;20.42;54.91
79129;BME280;68529;43.286;23.360;2023-07-29T00:49:51;98953.09;;;20.42;55.07
79129;BME280;68529;43.286;23.360;2023-07-29T00:52:16;98947.28;;;20.37;55.19
79129;BME280;68529;43.286;23.360;2023-07-29T00:54:42;98945.72;;;20.35;55.06
79129;BME280;68529;43.286;23.360;2023-07-29T00:57:11;98948.63;;;20.31;55.16
79129;BME280;68529;43.286;23.360;2023-07-29T00:59:39;98949.47;;;20.32;55.33
79129;BME280;68529;43.286;23.360;2023-07-29T01:02:05;98949.34;;;20.33;54.84
79129;BME280;68529;43.286;23.360;2023-07-29T01:04:31;98948.72;;;20.30;55.23
79129;BME280;68529;43.286;23.360;2023-07-29T01:09:47;98948.25;;;20.25;55.24
79129;BME280;68529;43.286;23.360;2023-07-29T01:12:33;98942.63;;;20.17;55.56
79129;BME280;68529;43.286;23.360;2023-07-29T01:15:11;98945.53;;;20.14;55.64
79129;BME280;68529;43.286;23.360;2023-07-29T01:17:43;98952.09;;;20.10;55.50
79129;BME280;68529;43.286;23.360;2023-07-29T01:20:14;98950.63;;;20.06;55.73
79129;BME280;68529;43.286;23.360;2023-07-29T01:22:41;98941.28;;;20.00;55.96
79129;BME280;68529;43.286;23.360;2023-07-29T01:25:07;98939.22;;;19.93;56.17
79129;BME280;68529;43.286;23.360;2023-07-29T01:27:32;98940.91;;;19.94;56.07
79129;BME280;68529;43.286;23.360;2023-07-29T01:29:58;98940.16;;;19.92;56.15
79129;BME280;68529;43.286;23.360;2023-07-29T01:37:43;98943.22;;;19.98;55.93
79129;BME280;68529;43.286;23.360;2023-07-29T01:40:11;98946.00;;;19.97;56.17
79129;BME280;68529;43.286;23.360;2023-07-29T01:42:37;98941.28;;;20.00;56.23
79129;BME280;68529;43.286;23.360;2023-07-29T01:45:03;98940.66;;;19.97;55.94
79129;BME280;68529;43.286;23.360;2023-07-29T01:47:29;98928.41;;;19.94;56.16
79129;BME280;68529;43.286;23.360;2023-07-29T01:49:54;98928.66;;;19.91;56.33
79129;BME280;68529;43.286;23.360;2023-07-29T01:52:20;98924.91;;;19.94;56.15
79129;BME280;68529;43.286;23.360;2023-07-29T01:54:45;98933.50;;;19.97;56.31
79129;BME280;68529;43.286;23.360;2023-07-29T01:57:10;98938.97;;;19.96;55.99
79129;BME280;68529;43.286;23.360;2023-07-29T01:59:36;98937.63;;;19.90;56.24
79129;BME280;68529;43.286;23.360;2023-07-29T02:02:02;98935.69;;;19.92;55.81
79129;BME280;68529;43.286;23.360;2023-07-29T02:04:27;98936.41;;;19.94;55.87
79129;BME280;68529;43.286;23.360;2023-07-29T02:06:53;98935.31;;;19.97;56.13
79129;BME280;68529;43.286;23.360;2023-07-29T02:09:18;98929.03;;;19.98;56.00
79129;BME280;68529;43.286;23.360;2023-07-29T02:11:44;98933.50;;;19.97;56.02
79129;BME280;68529;43.286;23.360;2023-07-29T02:14:09;98933.41;;;19.99;55.88
79129;BME280;68529;43.286;23.360;2023-07-29T02:16:34;98930.97;;;19.96;56.09
79129;BME280;68529;43.286;23.360;2023-07-29T02:19:00;98925.66;;;19.96;55.92
79129;BME280;68529;43.286;23.360;2023-07-29T02:21:25;98929.50;;;19.92;56.12
79129;BME280;68529;43.286;23.360;2023-07-29T02:23:51;98922.38;;;19.92;55.95
79129;BME280;68529;43.286;23.360;2023-07-29T02:26:17;98930.22;;;19.94;55.93
79129;BME280;68529;43.286;23.360;2023-07-29T02:28:42;98932.19;;;19.92;56.08
79129;BME280;68529;43.286;23.360;2023-07-29T02:31:22;98923.56;;;19.88;56.13
79129;BME280;68529;43.286;23.360;2023-07-29T02:33:48;98932.53;;;19.87;56.12
79129;BME280;68529;43.286;23.360;2023-07-29T02:36:14;98941.41;;;19.88;56.09
79129;BME280;68529;43.286;23.360;2023-07-29T02:38:40;98939.56;;;19.88;56.13
79129;BME280;68529;43.286;23.360;2023-07-29T02:41:07;98936.78;;;19.90;56.10
79129;BME280;68529;43.286;23.360;2023-07-29T02:43:34;98932.66;;;19.86;56.19
79129;BME280;68529;43.286;23.360;2023-07-29T02:46:00;98936.53;;;19.82;55.94
79129;BME280;68529;43.286;23.360;2023-07-29T02:48:25;98938.44;;;19.80;55.85
79129;BME280;68529;43.286;23.360;2023-07-29T02:50:51;98939.44;;;19.79;55.83
79129;BME280;68529;43.286;23.360;2023-07-29T02:53:16;98940.28;;;19.79;56.21
79129;BME280;68529;43.286;23.360;2023-07-29T02:55:41;98938.66;;;19.76;56.07
79129;BME280;68529;43.286;23.360;2023-07-29T02:58:07;98933.34;;;19.76;55.90
79129;BME280;68529;43.286;23.360;2023-07-29T03:00:33;98934.34;;;19.75;55.89
79129;BME280;68529;43.286;23.360;2023-07-29T03:02:59;98943.91;;;19.78;55.98
79129;BME280;68529;43.286;23.360;2023-07-29T03:05:27;98940.28;;;19.79;56.00
79129;BME280;68529;43.286;23.360;2023-07-29T03:07:52;98946.44;;;19.80;55.92
79129;BME280;68529;43.286;23.360;2023-07-29T03:10:17;98937.25;;;19.84;56.01
79129;BME280;68529;43.286;23.360;2023-07-29T03:12:43;98948.16;;;19.81;56.11
79129;BME280;68529;43.286;23.360;2023-07-29T03:15:08;98952.38;;;19.83;55.77
79129;BME280;68529;43.286;23.360;2023-07-29T03:17:34;98956.88;;;19.83;55.92
79129;BME280;68529;43.286;23.360;2023-07-29T03:19:59;98951.44;;;19.84;55.89
79129;BME280;68529;43.286;23.360;2023-07-29T03:22:24;98961.00;;;19.87;56.00
79129;BME280;68529;43.286;23.360;2023-07-29T03:24:50;98955.69;;;19.87;55.98
79129;BME280;68529;43.286;23.360;2023-07-29T03:27:15;98962.19;;;19.83;55.92
79129;BME280;68529;43.286;23.360;2023-07-29T03:29:41;98959.72;;;19.68;56.25
79129;BME280;68529;43.286;23.360;2023-07-29T03:32:07;98961.56;;;19.68;56.23
79129;BME280;68529;43.286;23.360;2023-07-29T03:34:32;98956.56;;;19.63;56.34
79129;BME280;68529;43.286;23.360;2023-07-29T03:36:58;98957.06;;;19.68;56.49
79129;BME280;68529;43.286;23.360;2023-07-29T03:39:24;98964.09;;;19.69;56.58
79129;BME280;68529;43.286;23.360;2023-07-29T03:41:49;98960.97;;;19.75;56.27
79129;BME280;68529;43.286;23.360;2023-07-29T03:44:14;98965.59;;;19.73;56.29
79129;BME280;68529;43.286;23.360;2023-07-29T03:46:40;98960.34;;;19.72;56.74
79129;BME280;68529;43.286;23.360;2023-07-29T03:49:05;98961.94;;;19.74;56.45
79129;BME280;68529;43.286;23.360;2023-07-29T03:51:30;98963.75;;;19.74;56.72
79129;BME280;68529;43.286;23.360;2023-07-29T03:53:56;98971.88;;;19.72;56.71
79129;BME280;68529;43.286;23.360;2023-07-29T03:56:21;98974.41;;;19.74;56.83
79129;BME280;68529;43.286;23.360;2023-07-29T03:58:47;98968.75;;;19.79;56.64
79129;BME280;68529;43.286;23.360;2023-07-29T04:01:15;98959.69;;;19.92;56.56
79129;BME280;68529;43.286;23.360;2023-07-29T04:03:40;98961.41;;;20.04;56.29
79129;BME280;68529;43.286;23.360;2023-07-29T04:06:06;98964.44;;;20.11;56.28
79129;BME280;68529;43.286;23.360;2023-07-29T04:08:31;98959.81;;;20.13;56.07
79129;BME280;68529;43.286;23.360;2023-07-29T04:10:57;98966.06;;;20.24;55.94
79129;BME280;68529;43.286;23.360;2023-07-29T04:13:22;98964.63;;;20.31;56.00
79129;BME280;68529;43.286;23.360;2023-07-29T04:15:48;98962.19;;;20.40;55.76
79129;BME280;68529;43.286;23.360;2023-07-29T04:18:13;98967.66;;;20.49;55.37
79129;BME280;68529;43.286;23.360;2023-07-29T04:20:39;98968.97;;;20.55;55.39
79129;BME280;68529;43.286;23.360;2023-07-29T04:23:04;98968.25;;;20.64;55.41
79129;BME280;68529;43.286;23.360;2023-07-29T04:25:29;98966.66;;;20.72;55.22
79129;BME280;68529;43.286;23.360;2023-07-29T04:27:55;98963.03;;;20.73;55.14
79129;BME280;68529;43.286;23.360;2023-07-29T04:30:22;98959.63;;;20.82;55.36
79129;BME280;68529;43.286;23.360;2023-07-29T04:32:48;98955.00;;;20.96;55.03
79129;BME280;68529;43.286;23.360;2023-07-29T04:35:13;98955.31;;;21.02;55.22
79129;BME280;68529;43.286;23.360;2023-07-29T04:37:40;98959.09;;;21.11;54.90
79129;BME280;68529;43.286;23.360;2023-07-29T04:40:06;98961.50;;;21.25;54.89
79129;BME280;68529;43.286;23.360;2023-07-29T04:42:31;98950.25;;;21.42;54.76
79129;BME280;68529;43.286;23.360;2023-07-29T04:44:57;98957.25;;;21.54;54.26
79129;BME280;68529;43.286;23.360;2023-07-29T04:47:22;98954.03;;;21.71;54.30
79129;BME280;68529;43.286;23.360;2023-07-29T04:49:48;98954.28;;;21.89;53.92
79129;BME280;68529;43.286;23.360;2023-07-29T04:52:14;98959.78;;;22.08;53.94
79129;BME280;68529;43.286;23.360;2023-07-29T04:54:40;98962.69;;;22.26;53.76
79129;BME280;68529;43.286;23.360;2023-07-29T04:57:05;98969.66;;;22.38;53.70
79129;BME280;68529;43.286;23.360;2023-07-29T04:59:31;98965.63;;;22.53;53.44
79129;BME280;68529;43.286;23.360;2023-07-29T05:01:56;98970.66;;;22.67;52.56
79129;BME280;68529;43.286;23.360;2023-07-29T05:04:22;98966.19;;;22.77;52.46
79129;BME280;68529;43.286;23.360;2023-07-29T05:06:48;98974.84;;;22.90;51.91
79129;BME280;68529;43.286;23.360;2023-07-29T05:09:17;98971.19;;;23.01;51.40
79129;BME280;68529;43.286;23.360;2023-07-29T05:11:44;98972.50;;;23.16;51.62
79129;BME280;68529;43.286;23.360;2023-07-29T05:14:14;98977.31;;;23.22;52.10
79129;BME280;68529;43.286;23.360;2023-07-29T05:16:40;98979.13;;;23.31;52.24
79129;BME280;68529;43.286;23.360;2023-07-29T05:19:05;98983.31;;;23.45;51.86
79129;BME280;68529;43.286;23.360;2023-07-29T05:21:31;98976.78;;;23.57;52.49
79129;BME280;68529;43.286;23.360;2023-07-29T05:23:56;98977.09;;;23.63;51.73
79129;BME280;68529;43.286;23.360;2023-07-29T05:26:22;98971.72;;;23.73;52.03
79129;BME280;68529;43.286;23.360;2023-07-29T05:28:48;98976.63;;;23.87;51.17
79129;BME280;68529;43.286;23.360;2023-07-29T05:31:13;98967.44;;;23.99;51.58
79129;BME280;68529;43.286;23.360;2023-07-29T05:33:39;98978.31;;;24.07;50.87
79129;BME280;68529;43.286;23.360;2023-07-29T05:36:04;98976.78;;;24.14;51.20
79129;BME280;68529;43.286;23.360;2023-07-29T05:38:30;98987.91;;;24.29;51.27
79129;BME280;68529;43.286;23.360;2023-07-29T05:40:56;98976.97;;;24.40;50.73
79129;BME280;68529;43.286;23.360;2023-07-29T05:43:21;98992.63;;;24.54;50.27
79129;BME280;68529;43.286;23.360;2023-07-29T05:45:47;98988.22;;;24.63;49.43
79129;BME280;68529;43.286;23.360;2023-07-29T05:48:12;98986.34;;;24.73;48.53
79129;BME280;68529;43.286;23.360;2023-07-29T05:50:37;98983.06;;;24.79;48.21
79129;BME280;68529;43.286;23.360;2023-07-29T05:53:03;98984.50;;;24.83;47.73
79129;BME280;68529;43.286;23.360;2023-07-29T05:55:28;98993.03;;;24.96;49.12
79129;BME280;68529;43.286;23.360;2023-07-29T05:57:54;98974.75;;;25.09;48.85
79129;BME280;68529;43.286;23.360;2023-07-29T06:00:20;98991.06;;;25.25;48.97
79129;BME280;68529;43.286;23.360;2023-07-29T06:02:45;98991.69;;;25.37;48.65
79129;BME280;68529;43.286;23.360;2023-07-29T06:05:11;98985.44;;;25.36;48.61
79129;BME280;68529;43.286;23.360;2023-07-29T06:07:36;98989.56;;;25.13;49.39
79129;BME280;68529;43.286;23.360;2023-07-29T06:10:02;98996.56;;;25.24;48.44
79129;BME280;68529;43.286;23.360;2023-07-29T06:12:27;98998.22;;;25.34;48.35
79129;BME280;68529;43.286;23.360;2023-07-29T06:14:53;98989.50;;;25.50;47.95
79129;BME280;68529;43.286;23.360;2023-07-29T06:17:18;98985.03;;;25.59;47.61
79129;BME280;68529;43.286;23.360;2023-07-29T06:19:43;98995.31;;;25.63;48.00
79129;BME280;68529;43.286;23.360;2023-07-29T06:22:09;98986.50;;;25.71;47.87
79129;BME280;68529;43.286;23.360;2023-07-29T06:24:35;98980.16;;;25.80;47.31
79129;BME280;68529;43.286;23.360;2023-07-29T06:27:00;98985.78;;;25.86;47.39
79129;BME280;68529;43.286;23.360;2023-07-29T06:29:26;98989.16;;;25.88;47.29
79129;BME280;68529;43.286;23.360;2023-07-29T06:31:51;98991.09;;;25.96;47.46
79129;BME280;68529;43.286;23.360;2023-07-29T06:34:20;98992.22;;;26.11;47.92
79129;BME280;68529;43.286;23.360;2023-07-29T06:36:45;98986.28;;;26.25;47.47
79129;BME280;68529;43.286;23.360;2023-07-29T06:39:10;98977.09;;;26.36;45.47
79129;BME280;68529;43.286;23.360;2023-07-29T06:41:36;98990.16;;;26.48;45.51
79129;BME280;68529;43.286;23.360;2023-07-29T06:44:01;98990.88;;;26.58;45.02
79129;BME280;68529;43.286;23.360;2023-07-29T06:46:27;98983.88;;;26.74;44.87
79129;BME280;68529;43.286;23.360;2023-07-29T06:48:52;98984.28;;;26.79;45.15
79129;BME280;68529;43.286;23.360;2023-07-29T06:51:17;98989.38;;;26.90;44.68
79129;BME280;68529;43.286;23.360;2023-07-29T06:53:43;98987.31;;;26.84;44.56
79129;BME280;68529;43.286;23.360;2023-07-29T06:56:08;98983.03;;;26.73;45.67
79129;BME280;68529;43.286;23.360;2023-07-29T06:58:34;98980.59;;;26.80;45.15
79129;BME280;68529;43.286;23.360;2023-07-29T07:01:00;98986.47;;;26.83;45.21
79129;BME280;68529;43.286;23.360;2023-07-29T07:03:25;98976.41;;;26.85;45.33
79129;BME280;68529;43.286;23.360;2023-07-29T07:05:51;98990.75;;;26.94;45.24
79129;BME280;68529;43.286;23.360;2023-07-29T07:08:16;98979.84;;;27.11;45.54
79129;BME280;68529;43.286;23.360;2023-07-29T07:10:41;98982.97;;;27.33;45.22
79129;BME280;68529;43.286;23.360;2023-07-29T07:13:07;98975.22;;;27.38;43.91
79129;BME280;68529;43.286;23.360;2023-07-29T07:15:32;98978.75;;;27.38;43.63
79129;BME280;68529;43.286;23.360;2023-07-29T07:17:58;98978.13;;;27.44;43.26
79129;BME280;68529;43.286;23.360;2023-07-29T07:20:23;98981.53;;;27.54;43.29
79129;BME280;68529;43.286;23.360;2023-07-29T07:22:48;98986.75;;;27.64;43.64
79129;BME280;68529;43.286;23.360;2023-07-29T07:25:14;98974.78;;;27.83;44.31
79129;BME280;68529;43.286;23.360;2023-07-29T07:27:39;98983.41;;;28.02;42.81
79129;BME280;68529;43.286;23.360;2023-07-29T07:30:05;98971.75;;;27.94;42.08
79129;BME280;68529;43.286;23.360;2023-07-29T07:32:30;98975.66;;;27.91;42.43
79129;BME280;68529;43.286;23.360;2023-07-29T07:34:56;98973.09;;;27.98;43.51
79129;BME280;68529;43.286;23.360;2023-07-29T07:37:21;98981.72;;;28.17;42.67
79129;BME280;68529;43.286;23.360;2023-07-29T07:39:47;98973.44;;;28.35;41.58
79129;BME280;68529;43.286;23.360;2023-07-29T07:42:12;98975.78;;;28.38;41.54
79129;BME280;68529;43.286;23.360;2023-07-29T07:44:37;98978.81;;;28.43;40.98
79129;BME280;68529;43.286;23.360;2023-07-29T07:47:03;98980.19;;;28.31;39.81
79129;BME280;68529;43.286;23.360;2023-07-29T07:49:28;98970.72;;;28.35;39.80
79129;BME280;68529;43.286;23.360;2023-07-29T07:51:54;98984.19;;;28.51;40.90
79129;BME280;68529;43.286;23.360;2023-07-29T07:54:19;98979.44;;;28.77;40.33
79129;BME280;68529;43.286;23.360;2023-07-29T07:56:44;98972.59;;;28.98;39.11
79129;BME280;68529;43.286;23.360;2023-07-29T07:59:10;98977.13;;;29.05;37.16
79129;BME280;68529;43.286;23.360;2023-07-29T08:01:36;98968.19;;;28.97;37.45
79129;BME280;68529;43.286;23.360;2023-07-29T08:04:02;98976.81;;;29.00;37.46
79129;BME280;68529;43.286;23.360;2023-07-29T08:06:28;98962.91;;;29.11;38.19
79129;BME280;68529;43.286;23.360;2023-07-29T08:08:53;98969.19;;;29.34;38.62
79129;BME280;68529;43.286;23.360;2023-07-29T08:11:19;98968.28;;;29.50;37.63
79129;BME280;68529;43.286;23.360;2023-07-29T08:13:44;98967.50;;;29.64;39.17
79129;BME280;68529;43.286;23.360;2023-07-29T08:16:10;98964.38;;;29.75;37.96
79129;BME280;68529;43.286;23.360;2023-07-29T08:18:35;98964.19;;;29.77;36.33
79129;BME280;68529;43.286;23.360;2023-07-29T08:21:01;98964.00;;;29.78;37.28
79129;BME280;68529;43.286;23.360;2023-07-29T08:23:34;98962.28;;;29.85;38.49
79129;BME280;68529;43.286;23.360;2023-07-29T08:26:02;98963.34;;;29.99;36.63
79129;BME280;68529;43.286;23.360;2023-07-29T08:28:35;98952.78;;;30.04;35.73
79129;BME280;68529;43.286;23.360;2023-07-29T08:31:01;98962.44;;;30.07;36.49
79129;BME280;68529;43.286;23.360;2023-07-29T08:33:27;98956.03;;;30.22;36.13
79129;BME280;68529;43.286;23.360;2023-07-29T08:35:53;98956.09;;;30.37;35.71
79129;BME280;68529;43.286;23.360;2023-07-29T08:38:19;98953.09;;;30.46;36.58
79129;BME280;68529;43.286;23.360;2023-07-29T08:40:50;98954.56;;;30.49;35.23
79129;BME280;68529;43.286;23.360;2023-07-29T08:43:19;98946.75;;;30.17;35.34
79129;BME280;68529;43.286;23.360;2023-07-29T08:45:46;98951.84;;;30.34;35.32
79129;BME280;68529;43.286;23.360;2023-07-29T08:48:12;98944.47;;;30.57;35.36
79129;BME280;68529;43.286;23.360;2023-07-29T08:50:41;98937.78;;;30.68;34.45
79129;BME280;68529;43.286;23.360;2023-07-29T08:53:09;98941.78;;;30.87;34.66
79129;BME280;68529;43.286;23.360;2023-07-29T08:55:35;98943.06;;;31.05;34.40
79129;BME280;68529;43.286;23.360;2023-07-29T08:58:01;98935.63;;;31.29;34.89
79129;BME280;68529;43.286;23.360;2023-07-29T09:00:27;98932.50;;;31.46;34.75
79129;BME280;68529;43.286;23.360;2023-07-29T09:02:53;98927.63;;;31.42;33.23
79129;BME280;68529;43.286;23.360;2023-07-29T09:05:21;98928.25;;;31.44;32.35
79129;BME280;68529;43.286;23.360;2023-07-29T09:07:47;98929.59;;;31.48;31.92
79129;BME280;68529;43.286;23.360;2023-07-29T09:10:13;98926.28;;;31.52;31.52
79129;BME280;68529;43.286;23.360;2023-07-29T09:12:39;98925.06;;;31.55;32.25
79129;BME280;68529;43.286;23.360;2023-07-29T09:15:05;98925.97;;;31.62;32.56
79129;BME280;68529;43.286;23.360;2023-07-29T09:17:32;98926.44;;;31.65;32.16
79129;BME280;68529;43.286;23.360;2023-07-29T09:19:58;98926.38;;;31.59;31.00
79129;BME280;68529;43.286;23.360;2023-07-29T09:22:24;98923.28;;;31.62;31.84
79129;BME280;68529;43.286;23.360;2023-07-29T09:24:51;98927.16;;;31.38;31.61
79129;BME280;68529;43.286;23.360;2023-07-29T09:27:27;98928.84;;;31.54;32.16
79129;BME280;68529;43.286;23.360;2023-07-29T09:29:53;98928.31;;;31.65;30.87
79129;BME280;68529;43.286;23.360;2023-07-29T09:32:20;98928.09;;;31.45;31.40
79129;BME280;68529;43.286;23.360;2023-07-29T09:34:46;98925.88;;;31.49;31.61
79129;BME280;68529;43.286;23.360;2023-07-29T09:37:21;98920.53;;;31.83;30.99
79129;BME280;68529;43.286;23.360;2023-07-29T09:39:47;98921.81;;;32.08;30.64
79129;BME280;68529;43.286;23.360;2023-07-29T09:42:20;98920.72;;;32.31;30.02
79129;BME280;68529;43.286;23.360;2023-07-29T09:44:48;98911.84;;;32.15;29.66
79129;BME280;68529;43.286;23.360;2023-07-29T09:47:24;98915.59;;;32.14;30.40
79129;BME280;68529;43.286;23.360;2023-07-29T09:49:51;98907.69;;;32.19;30.04
79129;BME280;68529;43.286;23.360;2023-07-29T09:52:22;98913.25;;;32.39;30.79
79129;BME280;68529;43.286;23.360;2023-07-29T09:54:54;98910.22;;;32.55;30.16
79129;BME280;68529;43.286;23.360;2023-07-29T09:57:35;98902.75;;;32.64;29.56
79129;BME280;68529;43.286;23.360;2023-07-29T10:00:04;98905.91;;;32.67;29.74
79129;BME280;68529;43.286;23.360;2023-07-29T10:02:37;98901.13;;;32.76;29.59
79129;BME280;68529;43.286;23.360;2023-07-29T10:05:05;98898.03;;;32.79;29.56
79129;BME280;68529;43.286;23.360;2023-07-29T10:07:33;98893.88;;;32.83;29.87
79129;BME280;68529;43.286;23.360;2023-07-29T10:09:58;98896.63;;;32.96;30.18
79129;BME280;68529;43.286;23.360;2023-07-29T10:12:24;98891.22;;;33.03;29.92
79129;BME280;68529;43.286;23.360;2023-07-29T10:14:51;98893.28;;;32.94;28.69
79129;BME280;68529;43.286;23.360;2023-07-29T10:17:19;98891.50;;;32.73;27.92
79129;BME280;68529;43.286;23.360;2023-07-29T10:19:47;98888.81;;;32.80;28.99
79129;BME280;68529;43.286;23.360;2023-07-29T10:22:19;98896.00;;;33.01;29.52
79129;BME280;68529;43.286;23.360;2023-07-29T10:24:47;98879.34;;;33.23;29.11
79129;BME280;68529;43.286;23.360;2023-07-29T10:27:18;98880.66;;;33.40;28.98
79129;BME280;68529;43.286;23.360;2023-07-29T10:29:45;98882.31;;;33.48;28.62
79129;BME280;68529;43.286;23.360;2023-07-29T10:32:11;98869.34;;;33.44;27.80
79129;BME280;68529;43.286;23.360;2023-07-29T10:34:37;98866.81;;;33.35;28.18
79129;BME280;68529;43.286;23.360;2023-07-29T10:37:04;98858.84;;;33.40;27.67
79129;BME280;68529;43.286;23.360;2023-07-29T10:39:38;98861.38;;;33.35;28.33
79129;BME280;68529;43.286;23.360;2023-07-29T10:42:06;98859.28;;;33.44;27.45
79129;BME280;68529;43.286;23.360;2023-07-29T10:49:51;98856.34;;;33.39;27.60
79129;BME280;68529;43.286;23.360;2023-07-29T10:52:49;98861.81;;;33.52;27.02
79129;BME280;68529;43.286;23.360;2023-07-29T10:57:51;98856.34;;;33.46;26.52
79129;BME280;68529;43.286;23.360;2023-07-29T11:00:19;98857.38;;;33.25;27.01
79129;BME280;68529;43.286;23.360;2023-07-29T11:02:58;98861.13;;;33.17;27.62
79129;BME280;68529;43.286;23.360;2023-07-29T11:05:26;98853.41;;;33.27;26.88
79129;BME280;68529;43.286;23.360;2023-07-29T11:07:51;98853.75;;;33.05;26.77
79129;BME280;68529;43.286;23.360;2023-07-29T11:10:17;98856.63;;;32.90;27.54
79129;BME280;68529;43.286;23.360;2023-07-29T11:12:46;98852.38;;;32.74;27.51
79129;BME280;68529;43.286;23.360;2023-07-29T11:15:18;98855.28;;;32.73;27.58
79129;BME280;68529;43.286;23.360;2023-07-29T11:17:54;98853.44;;;32.80;28.37
79129;BME280;68529;43.286;23.360;2023-07-29T11:20:25;98853.63;;;32.72;27.84
79129;BME280;68529;43.286;23.360;2023-07-29T11:22:52;98847.94;;;32.60;28.31
79129;BME280;68529;43.286;23.360;2023-07-29T11:25:18;98857.75;;;32.55;27.26
79129;BME280;68529;43.286;23.360;2023-07-29T11:27:45;98855.56;;;32.44;28.24
79129;BME280;68529;43.286;23.360;2023-07-29T11:30:12;98850.06;;;32.37;27.78
79129;BME280;68529;43.286;23.360;2023-07-29T11:32:39;98850.84;;;32.24;27.62
79129;BME280;68529;43.286;23.360;2023-07-29T11:35:13;98842.03;;;32.22;28.14
79129;BME280;68529;43.286;23.360;2023-07-29T11:37:40;98853.31;;;32.19;28.20
79129;BME280;68529;43.286;23.360;2023-07-29T11:40:06;98859.25;;;32.30;28.65
79129;BME280;68529;43.286;23.360;2023-07-29T11:42:33;98839.41;;;32.36;29.08
79129;BME280;68529;43.286;23.360;2023-07-29T11:45:00;98835.63;;;32.37;29.01
79129;BME280;68529;43.286;23.360;2023-07-29T11:47:25;98839.44;;;32.42;29.81
79129;BME280;68529;43.286;23.360;2023-07-29T11:49:51;98834.31;;;32.60;29.04
79129;BME280;68529;43.286;23.360;2023-07-29T11:52:18;98842.78;;;32.44;28.78
79129;BME280;68529;43.286;23.360;2023-07-29T11:54:45;98839.13;;;32.24;29.67
79129;BME280;68529;43.286;23.360;2023-07-29T11:57:12;98846.44;;;31.96;28.66
79129;BME280;68529;43.286;23.360;2023-07-29T11:59:39;98835.66;;;31.81;28.69
79129;BME280;68529;43.286;23.360;2023-07-29T12:02:07;98831.81;;;31.69;29.15
79129;BME280;68529;43.286;23.360;2023-07-29T12:04:34;98835.91;;;31.58;29.15
79129;BME280;68529;43.286;23.360;2023-07-29T12:07:01;98838.44;;;31.60;29.86
79129;BME280;68529;43.286;23.360;2023-07-29T12:09:27;98830.28;;;31.60;30.09
79129;BME280;68529;43.286;23.360;2023-07-29T12:11:54;98837.00;;;31.64;29.54
79129;BME280;68529;43.286;23.360;2023-07-29T12:14:19;98839.16;;;31.68;30.11
79129;BME280;68529;43.286;23.360;2023-07-29T12:16:48;98833.72;;;31.68;29.12
79129;BME280;68529;43.286;23.360;2023-07-29T12:19:15;98829.53;;;31.73;29.41
79129;BME280;68529;43.286;23.360;2023-07-29T12:21:44;98828.91;;;31.70;30.40
79129;BME280;68529;43.286;23.360;2023-07-29T12:24:12;98830.00;;;31.76;30.33
79129;BME280;68529;43.286;23.360;2023-07-29T12:26:37;98826.38;;;31.97;31.56
79129;BME280;68529;43.286;23.360;2023-07-29T12:29:16;98825.09;;;32.20;31.54
79129;BME280;68529;43.286;23.360;2023-07-29T12:31:42;98823.66;;;32.24;29.54
79129;BME280;68529;43.286;23.360;2023-07-29T12:34:08;98822.78;;;32.17;29.28
79129;BME280;68529;43.286;23.360;2023-07-29T12:36:47;98825.56;;;31.96;29.07
79129;BME280;68529;43.286;23.360;2023-07-29T12:39:39;98828.53;;;31.74;29.51
79129;BME280;68529;43.286;23.360;2023-07-29T12:42:05;98838.09;;;31.69;30.14
79129;BME280;68529;43.286;23.360;2023-07-29T12:44:32;98824.72;;;31.68;29.57
79129;BME280;68529;43.286;23.360;2023-07-29T12:47:02;98828.66;;;31.65;29.84
79129;BME280;68529;43.286;23.360;2023-07-29T12:49:28;98824.06;;;31.66;29.57
79129;BME280;68529;43.286;23.360;2023-07-29T12:51:55;98819.81;;;31.57;30.23
79129;BME280;68529;43.286;23.360;2023-07-29T12:54:20;98828.34;;;31.54;30.34
79129;BME280;68529;43.286;23.360;2023-07-29T12:56:46;98829.69;;;31.64;30.78
79129;BME280;68529;43.286;23.360;2023-07-29T12:59:11;98829.94;;;31.69;30.76
79129;BME280;68529;43.286;23.360;2023-07-29T13:01:37;98819.13;;;31.76;30.61
79129;BME280;68529;43.286;23.360;2023-07-29T13:04:04;98825.03;;;31.80;30.90